Time;durP1;ratioP1;P1;durP2;ratioP2;P2;SDS_P1;SDS_P2;PMS_P1;PMS_P2;Temp;Humidity;BMP_temperature;BMP_pressure;BME280_temperature;BME280_humidity;BME280_pressure;Samples;Min_cycle;Max_cycle;Signal;HPM_P1;HPM_P2
2023/01/31 00:00:54;;;;;;;19.08;5.22;;;;;;;2.21;100.00;102401.34;5027073;28;20120;-65
2023/01/31 00:03:19;;;;;;;21.00;5.35;;;;;;;2.23;100.00;102406.63;5026171;28;20559;-65
2023/01/31 00:05:44;;;;;;;21.45;5.05;;;;;;;2.24;100.00;102413.78;5024449;28;20076;-63
2023/01/31 00:08:11;;;;;;;19.83;5.15;;;;;;;2.25;100.00;102410.94;5026168;28;20037;-64
2023/01/31 00:10:36;;;;;;;19.75;6.05;;;;;;;2.19;100.00;102406.06;5023548;28;20022;-65
2023/01/31 00:13:01;;;;;;;22.20;5.60;;;;;;;2.18;100.00;102407.06;5021128;28;20472;-63
2023/01/31 00:15:27;;;;;;;20.80;5.70;;;;;;;2.16;100.00;102416.31;5021233;28;20084;-65
2023/01/31 00:17:53;;;;;;;24.80;6.15;;;;;;;2.13;100.00;102411.16;5021824;28;20033;-65
2023/01/31 00:20:19;;;;;;;19.33;4.82;;;;;;;2.14;100.00;102419.16;5021805;28;20032;-65
2023/01/31 00:22:44;;;;;;;18.80;5.07;;;;;;;2.12;100.00;102418.44;5025704;28;20029;-64
2023/01/31 00:25:09;;;;;;;26.58;6.15;;;;;;;2.10;100.00;102433.13;5023360;28;20407;-64
2023/01/31 00:27:34;;;;;;;22.02;5.90;;;;;;;2.07;100.00;102436.94;5019296;28;20057;-61
2023/01/31 00:30:00;;;;;;;21.75;5.80;;;;;;;2.05;100.00;102437.09;5016709;28;20100;-64
2023/01/31 00:32:25;;;;;;;14.30;4.65;;;;;;;2.10;100.00;102433.13;5013307;28;20025;-64
2023/01/31 00:34:54;;;;;;;18.48;5.75;;;;;;;2.01;100.00;102438.34;5016101;28;20097;-64
2023/01/31 00:37:20;;;;;;;20.48;6.53;;;;;;;2.10;100.00;102433.13;5015275;28;20038;-65
2023/01/31 00:39:46;;;;;;;18.25;6.00;;;;;;;2.07;100.00;102435.09;5019189;28;20034;-65
2023/01/31 00:42:11;;;;;;;17.77;5.10;;;;;;;1.98;100.00;102425.09;5022526;28;20484;-65
2023/01/31 00:44:36;;;;;;;20.77;5.70;;;;;;;1.93;100.00;102416.53;5020799;28;20472;-63
2023/01/31 00:47:02;;;;;;;19.85;5.65;;;;;;;1.88;100.00;102413.34;5017716;28;20384;-63
2023/01/31 00:49:27;;;;;;;22.38;6.00;;;;;;;1.87;100.00;102410.75;5021158;28;20044;-65
2023/01/31 00:51:53;;;;;;;22.42;6.13;;;;;;;1.85;100.00;102400.06;5025063;28;20146;-64
2023/01/31 00:54:18;;;;;;;21.63;5.80;;;;;;;1.90;100.00;102414.06;5021154;28;20033;-65
2023/01/31 00:56:43;;;;;;;25.90;6.47;;;;;;;1.80;100.00;102416.72;5014038;28;20030;-61
2023/01/31 00:59:09;;;;;;;18.65;5.72;;;;;;;1.78;100.00;102409.75;5020245;28;20392;-65
2023/01/31 01:01:35;;;;;;;14.77;4.80;;;;;;;1.73;100.00;102407.44;5018453;28;20029;-64
2023/01/31 01:04:01;;;;;;;21.08;5.97;;;;;;;1.72;100.00;102412.97;5015145;28;20117;-62
2023/01/31 01:06:27;;;;;;;22.23;5.75;;;;;;;1.70;100.00;102409.56;5019707;28;20041;-65
2023/01/31 01:08:53;;;;;;;22.23;5.63;;;;;;;1.72;100.00;102400.28;5019975;28;20029;-61
2023/01/31 01:11:21;;;;;;;22.63;7.15;;;;;;;1.71;100.00;102395.88;5022303;28;20037;-65
2023/01/31 01:13:47;;;;;;;21.67;6.43;;;;;;;1.76;100.00;102390.91;5023820;28;20033;-65
2023/01/31 01:16:16;;;;;;;22.77;6.22;;;;;;;1.78;100.00;102390.78;5025982;28;20025;-65
2023/01/31 01:18:43;;;;;;;25.60;8.18;;;;;;;1.76;100.00;102384.63;5025121;28;20033;-65
2023/01/31 01:21:20;;;;;;;23.58;6.45;;;;;;;1.81;100.00;102379.66;5025462;28;20065;-64
2023/01/31 01:23:46;;;;;;;19.37;6.30;;;;;;;1.77;100.00;102378.22;5025257;28;20052;-65
2023/01/31 01:26:17;;;;;;;23.13;6.88;;;;;;;1.77;100.00;102373.69;5026728;28;20060;-63
2023/01/31 01:28:43;;;;;;;23.98;6.90;;;;;;;1.77;100.00;102370.09;5025597;28;20033;-65
2023/01/31 01:31:10;;;;;;;22.70;7.38;;;;;;;1.75;100.00;102375.66;5024410;28;20040;-64
2023/01/31 01:33:36;;;;;;;25.55;7.97;;;;;;;1.77;100.00;102372.78;5029330;28;20033;-65
2023/01/31 01:36:04;;;;;;;25.85;7.30;;;;;;;1.76;100.00;102366.53;5028907;28;20041;-66
2023/01/31 01:38:29;;;;;;;17.65;5.60;;;;;;;1.78;100.00;102366.41;5029103;28;20091;-64
2023/01/31 01:40:55;;;;;;;21.27;6.75;;;;;;;1.78;100.00;102363.69;5027806;28;20029;-64
2023/01/31 01:43:20;;;;;;;17.55;6.40;;;;;;;1.75;100.00;102369.38;5029099;28;20030;-65
2023/01/31 01:45:46;;;;;;;26.15;8.10;;;;;;;1.73;100.00;102368.66;5029098;28;20112;-65
2023/01/31 01:48:16;;;;;;;23.27;7.32;;;;;;;1.69;100.00;102369.91;5028343;28;20041;-66
2023/01/31 01:50:47;;;;;;;23.33;7.05;;;;;;;1.66;100.00;102364.75;5028955;28;20028;-63
2023/01/31 01:53:14;;;;;;;26.67;6.90;;;;;;;1.64;100.00;102366.75;5028041;28;20479;-65
2023/01/31 01:55:49;;;;;;;29.10;8.75;;;;;;;1.62;100.00;102368.72;5028564;28;20030;-65
2023/01/31 01:58:15;;;;;;;21.38;7.95;;;;;;;1.59;100.00;102360.91;5028989;28;20417;-65
2023/01/31 02:00:41;;;;;;;24.77;8.37;;;;;;;1.60;100.00;102355.34;5029312;28;20097;-66
2023/01/31 02:03:07;;;;;;;29.00;8.43;;;;;;;1.59;100.00;102363.59;5022417;28;20326;-65
2023/01/31 02:05:44;;;;;;;23.40;7.90;;;;;;;1.56;100.00;102359.28;5029651;28;20075;-66
2023/01/31 02:08:11;;;;;;;21.20;7.32;;;;;;;1.55;100.00;102357.59;5027812;28;20038;-63
2023/01/31 02:10:51;;;;;;;22.50;9.20;;;;;;;1.60;100.00;102365.31;5029277;28;20044;-61
2023/01/31 02:13:17;;;;;;;20.95;7.45;;;;;;;1.55;100.00;102363.00;5028843;28;20031;-64
2023/01/31 02:15:42;;;;;;;23.00;8.50;;;;;;;1.54;100.00;102364.84;5025789;28;20346;-65
2023/01/31 02:18:08;;;;;;;21.08;8.38;;;;;;;1.53;100.00;102370.41;5027601;28;20040;-60
2023/01/31 02:21:19;;;;;;;27.08;9.23;;;;;;;1.52;100.00;102366.84;5028716;28;20026;-65
2023/01/31 02:24:21;;;;;;;25.60;10.60;;;;;;;1.51;100.00;102384.06;5028819;28;20021;-65
2023/01/31 02:27:21;;;;;;;26.27;10.68;;;;;;;1.53;100.00;102387.50;5028147;28;20040;-62
2023/01/31 02:30:08;;;;;;;29.30;10.07;;;;;;;1.60;100.00;102386.97;5026045;28;20033;-65
2023/01/31 02:33:13;;;;;;;25.27;10.82;;;;;;;1.66;100.00;102383.72;5029457;28;20037;-64
2023/01/31 02:35:48;;;;;;;29.73;12.18;;;;;;;1.73;100.00;102384.91;5028504;28;20542;-61
2023/01/31 02:38:28;;;;;;;24.52;10.05;;;;;;;1.77;100.00;102383.63;5027031;28;20423;-65
2023/01/31 02:41:18;;;;;;;29.50;10.63;;;;;;;1.85;100.00;102372.13;5027404;28;20025;-65
2023/01/31 02:46:45;;;;;;;26.60;10.57;;;;;;;1.93;100.00;102367.75;4986726;28;20105;-64
2023/01/31 02:49:33;;;;;;;30.42;11.10;;;;;;;1.97;100.00;102361.03;4987641;28;20052;-65
2023/01/31 02:52:15;;;;;;;28.70;10.93;;;;;;;1.99;100.00;102355.50;4988549;28;20181;-65
2023/01/31 02:57:31;;;;;;;29.42;10.88;;;;;;;2.07;100.00;102361.94;4970012;28;20074;-61
2023/01/31 02:59:57;;;;;;;31.10;11.23;;;;;;;2.09;100.00;102359.09;4978452;28;20034;-65
2023/01/31 03:02:24;;;;;;;30.15;10.63;;;;;;;2.11;100.00;102369.78;4988898;28;20030;-64
2023/01/31 03:04:49;;;;;;;27.77;11.68;;;;;;;2.12;100.00;102366.06;4987347;28;20035;-65
2023/01/31 03:07:25;;;;;;;30.98;11.95;;;;;;;2.14;100.00;102364.09;4987836;28;20073;-65
2023/01/31 03:09:50;;;;;;;29.55;12.07;;;;;;;2.12;100.00;102360.66;4987742;28;20032;-64
2023/01/31 03:12:29;;;;;;;24.63;10.90;;;;;;;2.11;100.00;102354.38;4987484;28;20038;-65
2023/01/31 03:15:14;;;;;;;26.08;12.88;;;;;;;2.13;100.00;102363.25;4987933;28;20440;-63
2023/01/31 03:17:49;;;;;;;27.58;12.18;;;;;;;2.05;100.00;102358.50;4986649;28;20046;-63
2023/01/31 03:20:23;;;;;;;22.55;11.13;;;;;;;2.07;100.00;102353.78;4987610;28;20376;-64
2023/01/31 03:22:53;;;;;;;27.58;10.95;;;;;;;2.06;100.00;102362.06;4986789;28;20088;-65
2023/01/31 03:25:22;;;;;;;25.30;11.70;;;;;;;2.07;100.00;102366.50;4988223;28;20034;-62
2023/01/31 03:27:54;;;;;;;29.02;11.98;;;;;;;2.05;100.00;102355.81;4987225;28;20029;-59
2023/01/31 03:30:29;;;;;;;29.77;11.27;;;;;;;2.06;100.00;102349.38;4988408;28;20042;-65
2023/01/31 03:32:59;;;;;;;30.05;12.38;;;;;;;2.07;100.00;102352.94;4986158;28;20124;-65
2023/01/31 03:35:28;;;;;;;25.15;11.98;;;;;;;2.04;100.00;102354.09;4988668;28;20080;-65
2023/01/31 03:38:10;;;;;;;35.95;13.52;;;;;;;2.04;100.00;102348.66;4988323;28;20037;-65
2023/01/31 03:41:02;;;;;;;30.73;12.80;;;;;;;2.04;100.00;102337.84;4987513;28;20026;-62
2023/01/31 03:43:36;;;;;;;31.15;13.93;;;;;;;2.04;100.00;102345.09;4968929;28;20436;-65
2023/01/31 03:46:08;;;;;;;29.85;13.43;;;;;;;2.02;100.00;102334.38;4968320;28;20031;-62
2023/01/31 03:48:39;;;;;;;35.78;13.68;;;;;;;2.05;100.00;102333.25;4987425;28;20049;-65
2023/01/31 03:51:08;;;;;;;31.77;14.15;;;;;;;2.05;100.00;102322.44;4987883;28;20036;-65
2023/01/31 03:53:47;;;;;;;28.70;14.77;;;;;;;2.06;100.00;102321.44;4987135;28;20027;-65
2023/01/31 03:56:19;;;;;;;29.73;14.30;;;;;;;2.05;100.00;102323.28;4987429;28;20030;-65
2023/01/31 03:58:53;;;;;;;34.33;14.05;;;;;;;2.06;100.00;102325.00;4987234;28;20045;-64
2023/01/31 04:01:22;;;;;;;31.77;15.30;;;;;;;2.09;100.00;102313.03;4979329;28;20018;-63
2023/01/31 04:03:55;;;;;;;31.83;14.18;;;;;;;2.10;100.00;102311.19;4984827;28;20033;-63
2023/01/31 04:06:20;;;;;;;32.10;14.95;;;;;;;2.13;100.00;102319.00;4985727;28;20034;-65
2023/01/31 04:08:45;;;;;;;35.17;15.73;;;;;;;2.13;100.00;102313.59;4986137;28;20023;-65
2023/01/31 04:11:12;;;;;;;35.38;15.38;;;;;;;2.15;100.00;102322.44;4986397;28;20022;-65
2023/01/31 04:13:38;;;;;;;34.85;16.15;;;;;;;2.13;100.00;102314.47;4988121;28;20181;-64
2023/01/31 04:16:03;;;;;;;39.13;15.98;;;;;;;2.11;100.00;102318.31;4987277;28;20769;-65
2023/01/31 04:18:29;;;;;;;37.53;16.42;;;;;;;2.07;100.00;102302.31;4985116;28;20028;-62
2023/01/31 04:20:54;;;;;;;37.42;16.08;;;;;;;2.08;100.00;102312.19;4985823;28;20034;-65
2023/01/31 04:23:20;;;;;;;36.47;17.38;;;;;;;2.09;100.00;102310.31;4988007;28;20026;-64
2023/01/31 04:25:45;;;;;;;38.00;16.70;;;;;;;2.10;100.00;102308.47;4986216;28;20026;-64
2023/01/31 04:28:11;;;;;;;34.80;16.60;;;;;;;2.11;100.00;102302.91;4987542;28;20045;-63
2023/01/31 04:30:36;;;;;;;38.67;16.00;;;;;;;2.10;100.00;102311.19;4986858;28;20504;-65
2023/01/31 04:33:02;;;;;;;40.20;17.35;;;;;;;2.08;100.00;102314.03;4986367;28;20039;-65
2023/01/31 04:35:28;;;;;;;39.45;17.70;;;;;;;2.10;100.00;102306.59;4986303;28;20030;-64
2023/01/31 04:37:53;;;;;;;35.50;16.27;;;;;;;2.07;100.00;102307.72;4987485;28;20096;-65
2023/01/31 04:40:19;;;;;;;40.08;17.38;;;;;;;2.02;100.00;102307.28;4985576;28;20030;-63
2023/01/31 04:42:44;;;;;;;38.85;17.92;;;;;;;2.01;100.00;102310.16;4986907;28;20030;-61
2023/01/31 04:45:10;;;;;;;37.53;18.45;;;;;;;1.98;100.00;102308.59;4985355;28;20054;-65
2023/01/31 04:47:35;;;;;;;35.47;17.58;;;;;;;1.96;100.00;102290.75;4979795;28;20038;-63
2023/01/31 04:50:00;;;;;;;34.00;16.73;;;;;;;1.92;100.00;102295.56;4981993;28;20030;-65
2023/01/31 04:52:26;;;;;;;37.53;18.02;;;;;;;1.87;100.00;102291.56;4981920;28;20120;-64
2023/01/31 04:54:51;;;;;;;30.77;17.85;;;;;;;1.85;100.00;102280.88;4980378;28;20035;-65
2023/01/31 04:57:16;;;;;;;32.60;17.98;;;;;;;1.84;100.00;102278.31;4978885;28;20035;-64
2023/01/31 04:59:42;;;;;;;39.80;17.88;;;;;;;1.85;100.00;102277.31;4979988;28;20405;-62
2023/01/31 05:02:07;;;;;;;38.88;17.63;;;;;;;1.81;100.00;102269.44;4984022;28;20042;-63
2023/01/31 05:04:33;;;;;;;35.50;16.95;;;;;;;1.80;100.00;102269.59;4981343;28;20638;-64
2023/01/31 05:06:58;;;;;;;40.72;17.17;;;;;;;1.83;100.00;102268.47;4984811;28;20896;-64
2023/01/31 05:09:23;;;;;;;45.08;17.73;;;;;;;1.83;100.00;102258.50;4989571;28;20053;-61
2023/01/31 05:11:49;;;;;;;36.72;18.67;;;;;;;1.88;100.00;102269.78;4989605;28;20476;-65
2023/01/31 05:14:15;;;;;;;37.25;17.70;;;;;;;1.96;100.00;102269.91;4989180;28;20038;-65
2023/01/31 05:16:42;;;;;;;34.08;18.58;;;;;;;2.01;100.00;102278.47;4986525;28;20150;-61
2023/01/31 05:19:08;;;;;;;35.42;18.27;;;;;;;2.06;100.00;102261.81;4981568;28;20061;-63
2023/01/31 05:21:53;;;;;;;31.88;17.02;;;;;;;2.15;100.00;102254.69;4990877;28;20108;-65
2023/01/31 05:24:19;;;;;;;33.33;16.63;;;;;;;2.16;100.00;102264.53;4989568;28;20041;-65
2023/01/31 05:26:44;;;;;;;37.05;17.17;;;;;;;2.19;100.00;102258.84;4990179;28;20026;-65
2023/01/31 05:29:09;;;;;;;36.50;17.33;;;;;;;2.26;100.00;102266.25;4989607;28;20030;-65
2023/01/31 05:31:34;;;;;;;34.90;16.48;;;;;;;2.29;100.00;102274.13;4991049;28;20084;-64
2023/01/31 05:34:00;;;;;;;35.72;16.55;;;;;;;2.31;100.00;102265.81;4989175;28;20530;-61
2023/01/31 05:36:25;;;;;;;34.15;16.55;;;;;;;2.30;100.00;102261.41;4989110;28;20061;-64
2023/01/31 05:38:50;;;;;;;32.63;17.52;;;;;;;2.33;100.00;102248.44;4989856;28;20026;-65
2023/01/31 05:41:15;;;;;;;36.38;16.67;;;;;;;2.35;100.00;102242.88;4978588;28;20031;-65
2023/01/31 05:43:41;;;;;;;33.47;16.73;;;;;;;2.37;100.00;102240.84;4985655;28;20078;-64
2023/01/31 05:46:06;;;;;;;35.38;16.30;;;;;;;2.39;100.00;102238.03;4982116;28;20037;-62
2023/01/31 05:48:31;;;;;;;33.78;17.80;;;;;;;2.39;100.00;102238.03;4970235;28;20046;-65
2023/01/31 05:50:57;;;;;;;36.17;16.88;;;;;;;2.42;100.00;102233.16;4970364;28;20049;-65
2023/01/31 05:53:22;;;;;;;36.05;16.73;;;;;;;2.45;100.00;102234.72;4971190;28;20081;-65
2023/01/31 05:55:48;;;;;;;34.85;17.23;;;;;;;2.48;100.00;102231.72;4983030;28;20026;-64
2023/01/31 05:58:14;;;;;;;37.40;17.02;;;;;;;2.48;100.00;102234.41;4988032;28;20042;-63
2023/01/31 06:00:39;;;;;;;28.95;13.93;;;;;;;2.58;100.00;102243.41;4990464;28;20465;-64
2023/01/31 06:03:05;;;;;;;31.23;15.65;;;;;;;2.48;100.00;102238.00;4989442;28;20436;-63
2023/01/31 06:05:30;;;;;;;33.95;16.38;;;;;;;2.48;100.00;102242.56;4988966;28;20038;-65
2023/01/31 06:07:55;;;;;;;31.98;17.27;;;;;;;2.47;100.00;102254.41;4986591;28;20431;-65
2023/01/31 06:10:21;;;;;;;33.92;16.73;;;;;;;2.48;100.00;102245.28;4989205;28;20065;-65
2023/01/31 06:12:46;;;;;;;33.50;16.63;;;;;;;2.50;100.00;102240.56;4989486;28;20031;-63
2023/01/31 06:15:12;;;;;;;32.38;16.17;;;;;;;2.49;100.00;102233.44;4987851;28;20034;-65
2023/01/31 06:17:37;;;;;;;28.88;15.27;;;;;;;2.50;100.00;102229.72;4989256;28;20030;-65
2023/01/31 06:20:04;;;;;;;33.10;16.02;;;;;;;2.51;100.00;102235.00;4984862;28;20157;-65
2023/01/31 06:22:29;;;;;;;33.08;16.98;;;;;;;2.53;100.00;102230.28;4972197;28;20046;-65
2023/01/31 06:24:54;;;;;;;31.05;16.30;;;;;;;2.55;100.00;102228.28;4988600;28;20022;-66
2023/01/31 06:27:20;;;;;;;33.60;16.10;;;;;;;2.66;100.00;102234.56;4988844;28;20092;-65
2023/01/31 06:29:45;;;;;;;29.73;15.43;;;;;;;2.58;100.00;102230.69;4987186;28;20206;-65
2023/01/31 06:32:10;;;;;;;31.00;15.07;;;;;;;2.64;100.00;102231.16;4988387;28;20022;-65
2023/01/31 06:34:35;;;;;;;27.77;14.13;;;;;;;2.66;100.00;102221.00;4989344;28;20490;-65
2023/01/31 06:37:01;;;;;;;28.17;14.88;;;;;;;2.66;100.00;102218.28;4970845;28;20074;-66
2023/01/31 06:39:26;;;;;;;25.88;14.60;;;;;;;2.76;100.00;102219.13;4986567;28;20112;-63
2023/01/31 06:41:51;;;;;;;29.27;16.15;;;;;;;2.72;100.00;102220.41;4988814;28;20034;-65
2023/01/31 06:44:16;;;;;;;27.42;15.57;;;;;;;2.73;100.00;102205.84;4977045;28;20054;-65
2023/01/31 06:46:42;;;;;;;29.63;14.10;;;;;;;2.71;100.00;102199.72;4988158;28;20057;-65
2023/01/31 06:49:07;;;;;;;27.85;14.02;;;;;;;2.73;100.00;102193.13;4987928;28;20117;-62
2023/01/31 06:51:32;;;;;;;30.02;14.25;;;;;;;2.77;100.00;102201.84;4988726;28;20026;-64
2023/01/31 06:53:58;;;;;;;28.40;15.30;;;;;;;2.80;100.00;102198.84;4987554;28;20034;-64
2023/01/31 06:56:23;;;;;;;28.17;14.32;;;;;;;2.83;100.00;102202.09;4989138;28;20047;-65
2023/01/31 06:58:48;;;;;;;27.25;13.45;;;;;;;2.82;100.00;102207.69;4987228;28;20045;-65
2023/01/31 07:01:14;;;;;;;25.88;13.32;;;;;;;2.87;100.00;102208.09;4988102;28;20080;-65
2023/01/31 07:03:40;;;;;;;24.50;12.75;;;;;;;2.92;100.00;102213.94;4980346;28;20053;-65
2023/01/31 07:06:06;;;;;;;25.98;13.25;;;;;;;2.99;100.00;102212.38;4970000;28;20054;-62
2023/01/31 07:08:32;;;;;;;31.80;13.68;;;;;;;2.97;100.00;102208.06;4977782;28;20030;-65
2023/01/31 07:10:58;;;;;;;27.45;12.85;;;;;;;3.00;100.00;102186.94;4987392;28;20081;-61
2023/01/31 07:13:23;;;;;;;22.25;11.30;;;;;;;3.03;100.00;102197.47;4987561;28;20353;-64
2023/01/31 07:15:49;;;;;;;25.30;12.52;;;;;;;3.05;100.00;102198.19;4988127;28;20140;-65
2023/01/31 07:18:14;;;;;;;25.13;13.45;;;;;;;3.12;100.00;102195.72;4985242;28;20041;-64
2023/01/31 07:20:40;;;;;;;31.67;12.68;;;;;;;3.17;100.00;102193.44;4988063;28;20445;-66
2023/01/31 07:23:05;;;;;;;29.00;13.82;;;;;;;3.17;100.00;102193.44;4988568;28;20063;-65
2023/01/31 07:25:32;;;;;;;26.83;13.25;;;;;;;3.19;100.00;102176.97;4987376;28;20062;-65
2023/01/31 07:27:58;;;;;;;27.13;12.35;;;;;;;3.27;100.00;102172.53;4987245;28;20030;-64
2023/01/31 07:30:24;;;;;;;23.15;11.38;;;;;;;3.27;100.00;102163.53;4986642;28;20022;-63
2023/01/31 07:32:49;;;;;;;24.35;12.40;;;;;;;3.32;100.00;102172.06;4983577;28;20080;-65
2023/01/31 07:35:14;;;;;;;24.35;11.02;;;;;;;3.33;100.00;102177.34;4977738;28;20110;-64
2023/01/31 07:37:42;;;;;;;24.48;12.00;;;;;;;3.34;100.00;102180.91;4987077;28;20045;-65
2023/01/31 07:40:09;;;;;;;24.77;11.52;;;;;;;3.41;100.00;102187.47;4980756;28;20034;-63
2023/01/31 07:42:34;;;;;;;23.97;10.60;;;;;;;3.43;100.00;102187.31;4984081;28;20546;-65
2023/01/31 07:45:00;;;;;;;21.58;10.07;;;;;;;3.50;100.00;102183.84;4980275;28;20029;-66
2023/01/31 07:47:25;;;;;;;23.10;10.25;;;;;;;3.59;100.00;102177.47;4986533;28;20032;-66
2023/01/31 07:49:50;;;;;;;19.23;9.93;;;;;;;3.60;100.00;102164.78;4986870;28;20465;-65
2023/01/31 07:52:15;;;;;;;24.75;10.85;;;;;;;3.71;100.00;102155.56;4986486;28;20044;-66
2023/01/31 07:54:41;;;;;;;26.23;10.98;;;;;;;3.67;100.00;102163.16;4986016;28;20477;-65
2023/01/31 07:57:06;;;;;;;23.25;10.32;;;;;;;3.65;100.00;102157.03;4988560;28;20583;-65
2023/01/31 07:59:31;;;;;;;22.80;10.57;;;;;;;3.67;100.00;102170.44;4987719;28;20027;-65
2023/01/31 08:04:40;;;;;;;22.25;9.18;;;;;;;3.74;100.00;102161.50;4987481;28;20041;-65
2023/01/31 08:07:06;;;;;;;25.50;9.53;;;;;;;3.74;100.00;102152.50;4986011;28;20026;-65
2023/01/31 08:09:32;;;;;;;19.13;9.85;;;;;;;3.73;100.00;102161.69;4985930;28;20305;-65
2023/01/31 08:11:57;;;;;;;22.00;9.50;;;;;;;3.72;100.00;102149.97;4986996;28;20026;-65
2023/01/31 08:14:24;;;;;;;22.38;9.25;;;;;;;3.92;100.00;102156.09;4987405;28;20030;-64
2023/01/31 08:16:50;;;;;;;19.52;8.52;;;;;;;3.89;100.00;102159.97;4985502;28;20382;-65
2023/01/31 08:19:15;;;;;;;19.02;8.55;;;;;;;3.88;100.00;102149.25;4987045;28;20030;-64
2023/01/31 08:21:41;;;;;;;19.38;9.30;;;;;;;3.95;100.00;102144.91;4987509;28;20437;-65
2023/01/31 08:24:06;;;;;;;22.13;8.30;;;;;;;3.89;100.00;102145.53;4987460;28;20089;-63
2023/01/31 08:26:32;;;;;;;19.73;8.07;;;;;;;3.96;100.00;102134.91;4985563;28;20030;-65
2023/01/31 08:28:58;;;;;;;19.25;8.45;;;;;;;4.01;100.00;102136.16;4987081;28;20396;-64
2023/01/31 08:31:25;;;;;;;19.05;8.05;;;;;;;4.01;100.00;102136.16;4987848;28;20034;-65
2023/01/31 08:33:52;;;;;;;23.15;8.60;;;;;;;4.01;100.00;102130.72;4986404;28;20373;-64
2023/01/31 08:36:30;;;;;;;15.63;7.88;;;;;;;4.07;100.00;102131.94;4980646;28;20094;-65
2023/01/31 08:38:56;;;;;;;19.90;8.30;;;;;;;4.08;100.00;102122.78;4975662;28;20184;-64
2023/01/31 08:41:24;;;;;;;20.52;8.43;;;;;;;4.20;100.00;102120.66;4981994;28;20380;-65
2023/01/31 08:43:50;;;;;;;20.45;8.00;;;;;;;4.41;100.00;102119.31;4979802;28;20081;-63
2023/01/31 08:46:15;;;;;;;19.05;8.43;;;;;;;4.31;100.00;102117.66;4985345;28;20576;-64
2023/01/31 08:48:41;;;;;;;19.17;7.45;;;;;;;4.34;100.00;102114.66;4976719;28;20381;-62
2023/01/31 08:51:12;;;;;;;17.35;7.28;;;;;;;4.31;100.00;102110.41;4983592;28;20056;-65
2023/01/31 08:53:39;;;;;;;21.77;9.40;;;;;;;4.26;100.00;102095.53;4983020;28;20373;-64
2023/01/31 08:56:06;;;;;;;18.13;7.45;;;;;;;4.37;100.00;102101.59;4987904;28;20034;-64
2023/01/31 08:58:33;;;;;;;13.40;6.85;;;;;;;4.45;100.00;102098.06;4985391;28;20361;-65
2023/01/31 09:01:08;;;;;;;18.20;7.93;;;;;;;4.66;100.00;102104.00;4982122;28;20042;-64
2023/01/31 09:03:33;;;;;;;22.95;7.85;;;;;;;4.69;100.00;102103.66;4979013;28;20026;-64
2023/01/31 09:06:00;;;;;;;20.13;8.20;;;;;;;4.71;100.00;102098.03;4975150;28;20485;-63
2023/01/31 09:08:26;;;;;;;17.85;8.10;;;;;;;4.73;100.00;102103.34;4977796;28;20038;-61
2023/01/31 09:10:53;;;;;;;19.30;7.60;;;;;;;4.70;100.00;102096.34;4974714;28;20085;-62
2023/01/31 09:13:18;;;;;;;17.10;7.63;;;;;;;4.67;100.00;102094.81;4979429;28;20220;-65
2023/01/31 09:15:43;;;;;;;18.38;8.30;;;;;;;4.65;100.00;102094.09;4981065;28;20417;-64
2023/01/31 09:18:08;;;;;;;15.73;7.47;;;;;;;4.73;100.00;102093.31;4985557;28;20041;-64
2023/01/31 09:20:34;;;;;;;16.88;7.68;;;;;;;4.81;100.00;102078.88;4984134;28;20034;-65
2023/01/31 09:22:59;;;;;;;19.15;7.75;;;;;;;4.89;100.00;102066.16;4980988;28;20026;-62
2023/01/31 09:25:24;;;;;;;18.10;7.68;;;;;;;5.09;100.00;102066.75;4976289;28;20396;-65
2023/01/31 09:27:51;;;;;;;24.65;8.95;;;;;;;5.36;100.00;102070.22;4977839;28;20067;-65
2023/01/31 09:30:17;;;;;;;19.35;8.45;;;;;;;5.61;100.00;102072.00;4981209;28;20030;-62
2023/01/31 09:32:43;;;;;;;20.55;8.07;;;;;;;5.88;99.32;102079.03;4983679;28;20109;-64
2023/01/31 09:35:08;;;;;;;16.02;7.13;;;;;;;5.89;99.24;102085.31;4981085;28;20046;-60
2023/01/31 09:37:33;;;;;;;15.32;6.57;;;;;;;6.06;98.55;102081.59;4982942;28;20041;-65
2023/01/31 09:39:59;;;;;;;16.05;7.35;;;;;;;6.16;98.06;102081.41;4986245;28;20481;-64
2023/01/31 09:42:30;;;;;;;18.63;7.13;;;;;;;6.25;97.55;102074.94;4981755;28;20027;-65
2023/01/31 09:45:06;;;;;;;21.00;8.38;;;;;;;6.40;96.54;102073.22;4977769;28;20042;-65
2023/01/31 09:47:40;;;;;;;19.00;7.22;;;;;;;6.60;96.12;102072.84;4988518;28;20057;-65
2023/01/31 09:50:23;;;;;;;16.52;7.25;;;;;;;6.62;94.88;102076.22;4977612;28;20752;-65
2023/01/31 09:52:49;;;;;;;14.32;6.45;;;;;;;6.63;95.00;102078.78;4973982;28;20030;-65
2023/01/31 09:55:52;;;;;;;19.60;7.43;;;;;;;6.66;94.90;102074.88;4985278;28;20484;-65
2023/01/31 09:58:56;;;;;;;17.25;7.47;;;;;;;6.61;95.31;102056.28;4980853;28;20034;-66
2023/01/31 10:01:42;;;;;;;19.02;7.05;;;;;;;6.47;95.72;102067.91;4984233;28;20033;-64
2023/01/31 10:04:16;;;;;;;16.20;6.50;;;;;;;6.65;95.31;102054.91;4982796;28;20121;-64
2023/01/31 10:06:55;;;;;;;16.67;8.05;;;;;;;6.37;96.69;102059.06;4976573;28;20203;-62
2023/01/31 10:09:34;;;;;;;19.40;7.13;;;;;;;6.33;97.20;102055.81;4986295;28;20528;-65
2023/01/31 10:12:12;;;;;;;16.83;8.02;;;;;;;6.32;97.49;102053.25;4976669;28;20058;-61
2023/01/31 10:14:51;;;;;;;20.10;8.85;;;;;;;6.45;97.70;102053.59;4981217;28;20357;-64
2023/01/31 10:17:37;;;;;;;22.13;8.68;;;;;;;6.59;96.68;102047.41;4988875;28;20038;-65
2023/01/31 10:20:25;;;;;;;21.42;9.07;;;;;;;6.42;97.32;102057.50;4981124;28;20045;-64
2023/01/31 10:23:27;;;;;;;20.35;9.15;;;;;;;6.32;98.71;102061.44;4981937;28;20034;-64
2023/01/31 10:26:05;;;;;;;24.90;11.93;;;;;;;6.08;99.30;102063.16;4974080;28;20034;-59
2023/01/31 10:28:37;;;;;;;18.65;10.68;;;;;;;6.01;100.00;102066.78;4974818;28;20381;-64
2023/01/31 10:31:25;;;;;;;23.55;11.85;;;;;;;5.88;100.00;102070.84;4986587;28;20038;-64
2023/01/31 10:33:54;;;;;;;;;;;;;;;6.05;100.00;102077.16;4983752;28;20062;-64
2023/01/31 10:36:38;;;;;;;22.40;11.77;;;;;;;5.84;100.00;102079.53;4984805;28;20384;-64
2023/01/31 10:39:13;;;;;;;24.30;13.48;;;;;;;5.87;100.00;102073.72;4974083;28;20109;-62
2023/01/31 10:42:01;;;;;;;24.35;12.65;;;;;;;6.08;100.00;102060.44;4970453;28;20045;-63
2023/01/31 10:44:52;;;;;;;20.08;13.60;;;;;;;5.98;100.00;102059.75;4982030;28;20358;-63
2023/01/31 10:47:20;;;;;;;25.02;14.00;;;;;;;6.03;100.00;102059.25;4988498;28;20018;-61
2023/01/31 10:49:47;;;;;;;27.63;15.83;;;;;;;6.08;100.00;102059.59;4988025;28;20065;-64
2023/01/31 10:52:35;;;;;;;27.98;15.38;;;;;;;6.22;100.00;102053.44;4989245;28;20066;-61
2023/01/31 10:55:24;;;;;;;27.50;15.95;;;;;;;6.26;100.00;102049.34;4988381;28;20038;-63
2023/01/31 10:57:50;;;;;;;26.27;15.50;;;;;;;6.33;100.00;102052.22;4987661;28;20077;-62
2023/01/31 11:00:30;;;;;;;27.77;16.35;;;;;;;6.48;100.00;102042.31;4988232;28;20519;-63
2023/01/31 11:02:57;;;;;;;30.65;18.70;;;;;;;6.35;100.00;102047.47;4987062;28;20060;-63
2023/01/31 11:05:25;;;;;;;29.00;17.88;;;;;;;6.37;100.00;102027.16;4988574;28;20022;-64
2023/01/31 11:07:50;;;;;;;29.17;18.55;;;;;;;6.31;100.00;102032.47;4987945;28;20030;-63
2023/01/31 11:10:30;;;;;;;26.30;17.48;;;;;;;6.21;100.00;102041.69;4988566;28;20087;-63
2023/01/31 11:13:00;;;;;;;29.90;18.23;;;;;;;6.19;100.00;102027.38;4988762;28;20030;-64
2023/01/31 11:15:33;;;;;;;26.33;14.13;;;;;;;6.28;100.00;102022.75;4988468;28;20034;-63
2023/01/31 11:18:00;;;;;;;27.30;18.70;;;;;;;6.22;100.00;102021.56;4986887;28;20037;-60
2023/01/31 11:20:32;;;;;;;30.33;17.38;;;;;;;6.24;100.00;102016.81;4990842;28;20361;-64
2023/01/31 11:23:00;;;;;;;29.05;17.38;;;;;;;6.28;100.00;102014.56;4987399;28;20065;-62
2023/01/31 11:25:29;;;;;;;27.65;18.38;;;;;;;6.28;100.00;101990.00;4987320;28;20041;-64
2023/01/31 11:28:32;;;;;;;29.83;16.75;;;;;;;6.29;100.00;102005.38;4975779;28;20034;-64
2023/01/31 11:30:58;;;;;;;26.38;18.08;;;;;;;6.30;100.00;102012.53;4986443;28;20425;-61
2023/01/31 11:33:37;;;;;;;30.73;16.92;;;;;;;6.36;100.00;102000.91;4986132;28;20034;-64